Wetterdaten: April 2013
Datum Temp Feuchte Luftdruck Regen Wind Richtung Sonnenschein UV Solar Windben
01.04.2013 -2,1 C 73 % 1011,8 hPa 0,0 l/m 0,9 km/h N-NO 9,42 h 1,8 UV-I 394 W/m 4,8 km/h
02.04.2013 -0,0 C 70 % 1014,7 hPa 0,0 l/m 4,1 km/h N-NO 9,75 h 1,8 UV-I 401 W/m 14,9 km/h
03.04.2013 -0,3 C 72 % 1017,0 hPa 0,0 l/m 5,0 km/h O 0,50 h 0,8 UV-I 119 W/m 17,7 km/h
04.04.2013 1,3 C 76 % 1012,9 hPa 0,0 l/m 6,3 km/h O 1,75 h 1,3 UV-I 202 W/m 20,1 km/h
05.04.2013 0,5 C 90 % 1012,1 hPa 0,0 l/m 2,0 km/h N-NO 0,00 h 0,8 UV-I 68 W/m 11,3 km/h
06.04.2013 0,8 C 87 % 1019,8 hPa 0,8 l/m 1,3 km/h N-NO 1,58 h 1,3 UV-I 171 W/m 5,3 km/h
07.04.2013 0,9 C 74 % 1019,6 hPa 0,0 l/m 0,4 km/h N-NW 6,50 h 1,8 UV-I 317 W/m 2,0 km/h
08.04.2013 4,3 C 60 % 1007,5 hPa 0,0 l/m 3,9 km/h O-SO 7,33 h 1,8 UV-I 308 W/m 12,9 km/h
09.04.2013 5,3 C 88 % 1001,8 hPa 2,2 l/m 5,1 km/h SO 3,75 h 1,7 UV-I 239 W/m 12,9 km/h
10.04.2013 6,4 C 94 % 1005,1 hPa 2,4 l/m 0,7 km/h S-SO 0,58 h 1,0 UV-I 114 W/m 6,0 km/h
11.04.2013 9,4 C 84 % 999,3 hPa 4,8 l/m 4,8 km/h S-SO 1,25 h 1,4 UV-I 156 W/m 12,5 km/h
12.04.2013 8,6 C 87 % 1002,2 hPa 6,4 l/m 2,5 km/h S 1,75 h 1,5 UV-I 178 W/m 8,4 km/h
13.04.2013 6,1 C 91 % 1017,4 hPa 11,0 l/m 1,2 km/h S-SW 2,33 h 1,2 UV-I 160 W/m 8,0 km/h
14.04.2013 13,1 C 82 % 1022,0 hPa 0,8 l/m 1,5 km/h S-SO 4,33 h 1,9 UV-I 239 W/m 7,7 km/h
15.04.2013 15,7 C 75 % 1018,7 hPa 0,2 l/m 1,3 km/h S-SO 7,67 h 2,4 UV-I 356 W/m 5,6 km/h
16.04.2013 14,6 C 67 % 1018,6 hPa 0,0 l/m 2,6 km/h S-SW 5,25 h 2,2 UV-I 301 W/m 8,4 km/h
17.04.2013 13,6 C 85 % 1018,9 hPa 0,0 l/m 2,7 km/h S 2,83 h 1,6 UV-I 181 W/m 4,8 km/h
18.04.2013 13,4 C 57 % 1015,0 hPa 0,0 l/m 5,3 km/h S 8,83 h 2,6 UV-I 358 W/m 18,9 km/h
19.04.2013 8,4 C 76 % 1023,4 hPa 0,0 l/m 2,5 km/h NW 6,67 h 1,8 UV-I 306 W/m 11,6 km/h
20.04.2013 5,4 C 73 % 1028,6 hPa 0,0 l/m 3,0 km/h N-NO 9,67 h 2,4 UV-I 420 W/m 8,9 km/h
21.04.2013 10,7 C 71 % 1017,8 hPa 0,0 l/m 0,6 km/h SO 8,17 h 2,3 UV-I 366 W/m 5,6 km/h
22.04.2013 8,1 C 69 % 1015,9 hPa 0,0 l/m 1,0 km/h W 5,42 h 1,8 UV-I 271 W/m 5,6 km/h
23.04.2013 10,8 C 80 % 1020,3 hPa 0,0 l/m 4,1 km/h S-SW 0,33 h 1,8 UV-I 171 W/m 10,9 km/h
24.04.2013 14,1 C 69 % 1023,9 hPa 0,0 l/m 0,7 km/h S-SW 9,25 h 3,2 UV-I 394 W/m 4,4 km/h
25.04.2013 15,2 C 80 % 1020,1 hPa 0,0 l/m 0,7 km/h S 5,42 h 3,0 UV-I 317 W/m 2,4 km/h
26.04.2013 10,4 C 85 % 1007,2 hPa 5,8 l/m 6,1 km/h N-NW 3,83 h 1,7 UV-I 180 W/m 16,9 km/h
27.04.2013 4,8 C 91 % 1010,4 hPa 0,8 l/m 6,9 km/h N 0,00 h 0,9 UV-I 102 W/m 14,9 km/h
28.04.2013 7,4 C 77 % 1015,6 hPa 0,2 l/m 0,3 km/h S-SO 6,75 h 2,4 UV-I 405 W/m 4,0 km/h
29.04.2013 8,4 C 74 % 1017,2 hPa 0,0 l/m 1,3 km/h S-SW 6,83 h 2,3 UV-I 355 W/m 5,6 km/h
30.04.2013 8,2 C 70 % 1022,8 hPa 0,0 l/m 0,8 km/h N-NO 6,25 h 2,1 UV-I 294 W/m 4,0 km/h
Min-Datum 01.04.13 22.04.13 12.04.13 11 Tage 01.04.13 - - - - 01.04.13
Min-Zeit 06:55 16:10 03:15 - 00:00 - - - - 00:00
Minimum -8,2 C 35 % 997,9 hPa - 0,0 km/h - - - - 0,0 km/h
Max-Datum 15.04.13 16.04.13 20.04.13 13.04.13 13.04.13 - 02.04.13 25.04.13 28.04.13 13.04.13
Max-Zeit 14:15 08:55 10:15 09:40 01:50 - 18:00 13:25 14:20 01:50
Maximum 24,6 C 98 % 1030,8 hPa 11,0 l/m 30,6 km/h
S-SW
- 9,67 h 7,2 UV-I 1085 W/m 48,3 km/h
W-SW
Durchschnitt 7,4 C 78 % 1015,3 hPa #35,4 l/m 2,6 km/h S #144:00 h 1,8 UV-I 261 W/m 9,2 km/h

Durchschnitt Minimum Temp.2,7 C
Durchschnitt Maximum Temp.12,7 C